createdAt,value
2018-04-06T00:02:13.333Z,64.01
2018-04-06T00:04:41.063Z,64.07
2018-04-06T00:07:08.642Z,64.34
2018-04-06T00:09:36.194Z,64.60
2018-04-06T00:12:03.893Z,64.58
2018-04-06T00:14:31.725Z,65.03
2018-04-06T00:16:59.443Z,65.16
2018-04-06T00:19:27.018Z,65.07
2018-04-06T00:21:54.588Z,65.14
2018-04-06T00:24:22.396Z,65.41
2018-04-06T00:26:50.114Z,66.04
2018-04-06T00:29:17.935Z,66.25
2018-04-06T00:31:45.498Z,66.19
2018-04-06T00:34:13.047Z,66.15
2018-04-06T00:36:40.627Z,66.09
2018-04-06T00:39:08.186Z,65.98
2018-04-06T00:41:35.792Z,66.08
2018-04-06T00:44:03.540Z,66.34
2018-04-06T00:46:31.153Z,66.47
2018-04-06T00:48:58.876Z,66.94
2018-04-06T00:51:26.439Z,66.83
2018-04-06T00:53:54.023Z,67.04
2018-04-06T00:56:21.581Z,66.67
2018-04-06T00:58:49.348Z,66.79
2018-04-06T01:01:17.166Z,66.75
2018-04-06T01:03:44.989Z,66.89
2018-04-06T01:06:12.576Z,66.94
2018-04-06T01:08:40.321Z,66.70
2018-04-06T01:11:07.934Z,66.83
2018-04-06T01:13:35.498Z,66.74
2018-04-06T01:16:03.062Z,67.36
2018-04-06T01:18:30.638Z,67.02
2018-04-06T01:20:58.302Z,67.59
2018-04-06T01:23:25.939Z,68.43
2018-04-06T01:25:53.521Z,68.55
2018-04-06T01:28:21.265Z,68.35
2018-04-06T01:30:48.930Z,68.36
2018-04-06T01:33:16.505Z,68.24
2018-04-06T01:35:44.321Z,68.12
2018-04-06T01:38:12.812Z,68.14
2018-04-06T01:40:40.625Z,68.08
2018-04-06T01:43:08.189Z,67.39
2018-04-06T01:45:35.742Z,67.24
2018-04-06T01:48:03.334Z,67.19
2018-04-06T01:50:30.915Z,67.48
2018-04-06T01:52:58.536Z,67.93
2018-04-06T01:55:26.269Z,68.22
2018-04-06T01:57:53.987Z,68.48
2018-04-06T02:00:21.804Z,68.20
2018-04-06T02:02:49.351Z,68.15
2018-04-06T02:05:17.140Z,68.24
2018-04-06T02:07:44.737Z,68.94
2018-04-06T02:10:12.305Z,69.38
2018-04-06T02:12:39.879Z,69.54
2018-04-06T02:15:07.466Z,69.70
2018-04-06T02:17:35.034Z,70.00
2018-04-06T02:20:02.846Z,70.20
2018-04-06T02:22:30.557Z,70.62
2018-04-06T02:24:58.284Z,70.95
2018-04-06T02:27:25.842Z,71.37
2018-04-06T02:29:53.619Z,71.57
2018-04-06T02:32:21.401Z,71.50
2018-04-06T02:34:49.143Z,71.83
2018-04-06T02:37:16.710Z,71.62
2018-04-06T02:39:44.332Z,71.69
2018-04-06T02:42:11.891Z,72.18
2018-04-06T02:44:39.447Z,71.94
2018-04-06T02:47:07.259Z,72.12
2018-04-06T02:49:34.822Z,72.17
2018-04-06T02:52:02.462Z,72.42
2018-04-06T02:54:30.203Z,72.66
2018-04-06T02:56:57.840Z,72.61
2018-04-06T02:59:25.398Z,72.53
2018-04-06T03:01:52.951Z,72.71
2018-04-06T03:04:20.521Z,72.40
2018-04-06T03:06:48.089Z,72.43
2018-04-06T03:09:15.733Z,72.08
2018-04-06T03:11:43.280Z,71.65
2018-04-06T03:14:10.898Z,71.61
2018-04-06T03:16:38.624Z,71.31
2018-04-06T03:19:06.183Z,71.98
2018-04-06T03:21:33.999Z,71.59
2018-04-06T03:24:01.565Z,72.40
2018-04-06T03:26:29.130Z,73.15
2018-04-06T03:28:56.689Z,74.12
2018-04-06T03:31:24.295Z,75.30
2018-04-06T03:33:52.088Z,75.42
2018-04-06T03:36:19.657Z,75.54
2018-04-06T03:38:47.217Z,75.61
2018-04-06T03:41:14.782Z,75.28
2018-04-06T03:43:42.463Z,75.64
2018-04-06T03:46:10.014Z,75.87
2018-04-06T03:48:37.647Z,75.38
2018-04-06T03:51:05.274Z,75.64
2018-04-06T03:53:33.031Z,74.89
2018-04-06T03:56:00.595Z,75.07
2018-04-06T03:58:28.372Z,75.79
2018-04-06T04:00:55.955Z,76.73
2018-04-06T04:03:23.666Z,76.97
2018-04-06T04:05:51.525Z,77.41
2018-04-06T04:08:19.242Z,77.22
2018-04-06T04:10:46.805Z,77.44
2018-04-06T04:13:14.375Z,78.40
2018-04-06T04:15:42.093Z,79.22
2018-04-06T04:18:09.662Z,79.71
2018-04-06T04:20:37.407Z,79.33
2018-04-06T04:23:05.013Z,79.11
2018-04-06T04:25:32.573Z,79.40
2018-04-06T04:28:00.394Z,80.07
2018-04-06T04:30:27.971Z,79.88
2018-04-06T04:32:55.690Z,80.54
2018-04-06T04:35:23.406Z,80.93
2018-04-06T04:37:50.962Z,81.23
2018-04-06T04:40:18.581Z,80.49
2018-04-06T04:42:46.146Z,81.49
2018-04-06T04:45:13.709Z,81.89
2018-04-06T04:47:41.319Z,82.54
2018-04-06T04:50:08.881Z,83.54
2018-04-06T04:52:36.663Z,83.36
2018-04-06T04:55:04.485Z,81.91
2018-04-06T04:57:32.109Z,81.87
2018-04-06T04:59:59.675Z,82.17
2018-04-06T05:02:27.248Z,82.56
2018-04-06T05:04:55.068Z,83.18
2018-04-06T05:07:22.622Z,83.66
2018-04-06T05:09:50.192Z,83.36
2018-04-06T05:12:17.749Z,84.03
2018-04-06T05:14:45.530Z,84.87
2018-04-06T05:17:13.258Z,84.43
2018-04-06T05:19:41.064Z,83.96
2018-04-06T05:22:08.670Z,84.12
2018-04-06T05:24:36.436Z,83.68
2018-04-06T05:27:04.279Z,83.80
2018-04-06T05:29:31.996Z,84.05
2018-04-06T05:31:59.713Z,83.58
2018-04-06T05:34:27.290Z,83.69
2018-04-06T05:36:54.852Z,83.51
2018-04-06T05:39:22.432Z,83.53
2018-04-06T05:41:49.994Z,83.27
2018-04-06T05:44:17.632Z,81.96
2018-04-06T05:46:45.362Z,80.56
2018-04-06T05:49:13.073Z,78.40
2018-04-06T05:51:40.901Z,77.89
2018-04-06T05:54:08.462Z,76.05
2018-04-06T05:56:36.038Z,75.81
2018-04-06T05:59:03.646Z,75.08
2018-04-06T06:01:31.417Z,74.11
2018-04-06T06:03:59.153Z,72.88
2018-04-06T06:06:26.714Z,70.86
2018-04-06T06:08:54.425Z,68.40
2018-04-06T06:11:22.243Z,67.42
2018-04-06T06:13:49.817Z,66.39
2018-04-06T06:16:17.378Z,64.95
2018-04-06T06:18:45.154Z,61.36
2018-04-06T06:21:13.016Z,59.02
2018-04-06T06:23:40.578Z,56.45
2018-04-06T06:26:08.329Z,55.98
2018-04-06T06:28:36.047Z,57.72
2018-04-06T06:31:03.888Z,59.19
2018-04-06T06:33:31.442Z,59.71
2018-04-06T06:35:59.074Z,62.35
2018-04-06T06:38:26.843Z,63.38
2018-04-06T06:40:54.402Z,64.06
2018-04-06T06:43:21.978Z,64.79
2018-04-06T06:45:49.556Z,65.01
2018-04-06T06:48:17.134Z,65.40
2018-04-06T06:50:44.693Z,66.24
2018-04-06T06:53:12.439Z,66.92
2018-04-06T06:55:40.067Z,67.40
2018-04-06T06:58:07.635Z,67.77
2018-04-06T07:00:35.404Z,68.63
2018-04-06T07:03:02.980Z,69.96
2018-04-06T07:05:30.727Z,70.14
2018-04-06T07:07:58.458Z,70.37
2018-04-06T07:10:26.090Z,70.39
2018-04-06T07:12:53.652Z,71.69
2018-04-06T07:15:21.210Z,72.63
2018-04-06T07:17:48.782Z,73.32
2018-04-06T07:20:16.548Z,73.65
2018-04-06T07:22:44.151Z,73.67
2018-04-06T07:25:11.692Z,74.22
2018-04-06T07:27:39.294Z,74.41
2018-04-06T07:30:06.854Z,75.32
2018-04-06T07:32:34.408Z,75.35
2018-04-06T07:35:02.073Z,75.46
2018-04-06T07:37:29.873Z,75.27
2018-04-06T07:39:57.692Z,74.25
2018-04-06T07:42:25.254Z,74.07
2018-04-06T07:44:52.866Z,73.72
2018-04-06T07:47:20.430Z,73.72
2018-04-06T07:49:48.006Z,72.54
2018-04-06T07:52:15.782Z,70.57
2018-04-06T07:54:43.350Z,70.67
2018-04-06T07:57:11.096Z,71.11
2018-04-06T07:59:38.658Z,70.69
2018-04-06T08:02:06.325Z,70.65
2018-04-06T08:04:33.885Z,69.77
2018-04-06T08:07:01.449Z,69.78
2018-04-06T08:09:29.182Z,66.77
2018-04-06T08:11:56.896Z,67.18
2018-04-06T08:14:24.613Z,67.43
2018-04-06T08:16:52.181Z,67.86
2018-04-06T08:19:19.923Z,68.49
2018-04-06T08:21:47.508Z,69.49
2018-04-06T08:24:15.072Z,70.24
2018-04-06T08:26:42.834Z,71.60
2018-04-06T08:29:10.552Z,72.58
2018-04-06T08:31:38.119Z,73.08
2018-04-06T08:34:05.889Z,73.50
2018-04-06T08:36:33.707Z,74.65
2018-04-06T08:39:01.274Z,75.01
2018-04-06T08:41:29.022Z,74.68
2018-04-06T08:43:56.739Z,74.86
2018-04-06T08:46:24.455Z,74.89
2018-04-06T08:48:52.051Z,74.08
2018-04-06T08:51:19.642Z,74.27
2018-04-06T08:53:47.315Z,73.48
2018-04-06T08:56:14.862Z,73.07
2018-04-06T08:58:42.446Z,72.64
2018-04-06T09:01:10.022Z,72.01
2018-04-06T09:03:37.696Z,71.55
2018-04-06T09:06:05.314Z,70.12
2018-04-06T09:08:32.877Z,69.67
2018-04-06T09:11:00.550Z,67.40
2018-04-06T09:13:28.980Z,65.75
2018-04-06T09:15:56.569Z,64.83
2018-04-06T09:18:24.298Z,63.85
2018-04-06T09:20:52.014Z,64.12
2018-04-06T09:23:19.644Z,64.33
2018-04-06T09:25:47.197Z,63.79
2018-04-06T09:28:14.988Z,62.86
2018-04-06T09:30:42.543Z,63.20
2018-04-06T09:33:10.115Z,61.09
2018-04-06T09:35:37.682Z,60.55
2018-04-06T09:38:05.239Z,59.72
2018-04-06T09:40:32.815Z,60.28
2018-04-06T09:43:00.601Z,59.95
2018-04-06T09:45:28.414Z,60.90
2018-04-06T09:47:56.016Z,61.36
2018-04-06T09:50:23.698Z,60.86
2018-04-06T09:52:51.265Z,60.96
2018-04-06T09:55:18.803Z,61.39
2018-04-06T09:57:46.604Z,60.71
2018-04-06T10:00:32.973Z,60.03
2018-04-06T10:03:03.021Z,59.89
2018-04-06T10:05:30.584Z,59.38
2018-04-06T10:07:58.170Z,58.78
2018-04-06T10:10:25.972Z,58.20
2018-04-06T10:12:53.597Z,58.79
2018-04-06T10:15:21.161Z,58.86
2018-04-06T10:17:48.783Z,59.55
2018-04-06T10:20:16.406Z,58.30
2018-04-06T10:22:44.159Z,57.17
2018-04-06T10:25:11.977Z,55.34
2018-04-06T10:27:39.796Z,53.64
2018-04-06T10:30:07.514Z,53.67
2018-04-06T10:32:35.067Z,52.10
2018-04-06T10:35:02.631Z,50.20
2018-04-06T10:37:30.346Z,49.93
2018-04-06T10:39:57.901Z,51.76
2018-04-06T10:42:25.468Z,54.78
2018-04-06T10:44:53.045Z,56.15
2018-04-06T10:47:20.606Z,56.59
2018-04-06T10:49:48.173Z,58.36
2018-04-06T10:52:15.746Z,58.73
2018-04-06T10:54:43.358Z,58.81
2018-04-06T10:57:10.913Z,59.05
2018-04-06T10:59:38.571Z,58.97
2018-04-06T11:02:06.145Z,59.16
2018-04-06T11:04:33.966Z,59.27
2018-04-06T11:07:01.534Z,59.23
2018-04-06T11:09:29.301Z,57.57
2018-04-06T11:11:56.914Z,57.49
2018-04-06T11:14:24.485Z,57.73
2018-04-06T11:16:52.043Z,56.99
2018-04-06T11:19:19.614Z,56.25
2018-04-06T11:21:47.270Z,56.92
2018-04-06T11:24:14.849Z,57.37
2018-04-06T11:26:42.627Z,55.91
2018-04-06T11:29:10.258Z,56.80
2018-04-06T11:31:37.816Z,56.68
2018-04-06T11:34:05.681Z,56.92
2018-04-06T11:36:33.266Z,58.17
2018-04-06T11:39:00.908Z,58.92
2018-04-06T11:41:28.536Z,60.43
2018-04-06T11:43:56.148Z,60.60
2018-04-06T11:46:23.970Z,60.63
2018-04-06T11:48:51.525Z,60.07
2018-04-06T11:51:19.311Z,60.56
2018-04-06T11:53:46.917Z,59.31
2018-04-06T11:56:14.471Z,59.15
2018-04-06T11:58:42.098Z,59.74
2018-04-06T12:01:09.791Z,59.83
2018-04-06T12:03:37.354Z,60.64
2018-04-06T12:06:05.118Z,60.81
2018-04-06T12:08:32.935Z,61.10
2018-04-06T12:11:00.694Z,61.11
2018-04-06T12:13:28.266Z,60.96
2018-04-06T12:15:56.092Z,61.65
2018-04-06T12:18:23.682Z,61.99
2018-04-06T12:20:51.238Z,61.07
2018-04-06T12:23:18.822Z,60.62
2018-04-06T12:25:46.387Z,60.20
2018-04-06T12:28:14.034Z,60.66
2018-04-06T12:30:41.657Z,61.20
2018-04-06T12:33:09.209Z,62.26
2018-04-06T12:35:36.933Z,62.59
2018-04-06T12:38:04.533Z,62.88
2018-04-06T12:40:32.111Z,64.12
2018-04-06T12:42:59.804Z,64.81
2018-04-06T12:45:27.403Z,65.43
2018-04-06T12:47:54.985Z,65.86
2018-04-06T12:50:22.711Z,66.59
2018-04-06T12:52:50.279Z,67.68
2018-04-06T12:55:17.848Z,69.05
2018-04-06T12:57:45.433Z,69.63
2018-04-06T13:00:13.007Z,70.09
2018-04-06T13:02:40.613Z,70.38
2018-04-06T13:05:08.178Z,70.64
2018-04-06T13:07:35.967Z,71.22
2018-04-06T13:10:03.671Z,71.68
2018-04-06T13:12:31.244Z,71.71
2018-04-06T13:14:58.934Z,71.45
2018-04-06T13:17:26.658Z,71.49
2018-04-06T13:19:54.234Z,70.53
2018-04-06T13:22:21.806Z,70.41
2018-04-06T13:24:49.592Z,70.50
2018-04-06T13:27:17.166Z,70.52
2018-04-06T13:29:44.750Z,69.37
2018-04-06T13:32:12.399Z,69.12
2018-04-06T13:34:39.973Z,68.78
2018-04-06T13:37:07.783Z,68.52
2018-04-06T13:39:35.600Z,68.43
2018-04-06T13:42:03.159Z,67.94
2018-04-06T13:44:30.770Z,67.39
2018-04-06T13:46:58.330Z,67.65
2018-04-06T13:49:26.175Z,67.61
2018-04-06T13:51:53.991Z,68.42
2018-04-06T13:54:22.503Z,68.40
2018-04-06T13:56:50.082Z,68.40
2018-04-06T13:59:18.351Z,68.29
2018-04-06T14:01:47.054Z,68.23
2018-04-06T14:04:20.669Z,68.84
2018-04-06T14:06:48.307Z,68.62
2018-04-06T14:09:17.471Z,68.35
2018-04-06T14:11:45.037Z,68.51
2018-04-06T14:14:12.851Z,68.61
2018-04-06T14:16:40.565Z,68.52
2018-04-06T14:19:08.133Z,68.62
2018-04-06T14:21:35.694Z,68.53
2018-04-06T14:24:03.306Z,69.42
2018-04-06T14:26:31.291Z,68.85
2018-04-06T14:28:59.270Z,68.68
2018-04-06T14:31:26.834Z,68.97
2018-04-06T14:33:54.828Z,69.62
2018-04-06T14:36:23.250Z,70.53
2018-04-06T14:38:50.886Z,70.61
2018-04-06T14:41:20.591Z,70.91
2018-04-06T14:43:48.410Z,71.29
2018-04-06T14:46:15.969Z,71.48
2018-04-06T14:48:43.547Z,71.15
2018-04-06T14:51:11.229Z,71.82
2018-04-06T14:53:38.793Z,72.48
2018-04-06T14:56:06.362Z,72.19
2018-04-06T14:58:34.107Z,71.62
2018-04-06T15:01:01.666Z,71.09
2018-04-06T15:03:29.234Z,71.33
2018-04-06T15:05:56.979Z,71.15
2018-04-06T15:08:24.543Z,71.28
2018-04-06T15:10:52.315Z,71.20
2018-04-06T15:13:20.134Z,71.25
2018-04-06T15:15:47.952Z,70.68
2018-04-06T15:18:15.501Z,70.36
2018-04-06T15:20:43.066Z,70.46
2018-04-06T15:23:10.644Z,70.68
2018-04-06T15:25:38.242Z,70.72
2018-04-06T15:28:06.031Z,70.88
2018-04-06T15:30:33.721Z,71.19
2018-04-06T15:33:01.337Z,71.33
2018-04-06T15:35:28.936Z,71.53
2018-04-06T15:37:56.716Z,71.25
2018-04-06T15:40:24.533Z,71.66
2018-04-06T15:42:52.091Z,72.00
2018-04-06T15:45:19.700Z,72.29
2018-04-06T15:47:47.265Z,72.72
2018-04-06T15:50:15.106Z,72.99
2018-04-06T15:52:42.666Z,72.66
2018-04-06T15:55:10.442Z,73.13
2018-04-06T15:57:38.006Z,73.38
2018-04-06T16:00:05.614Z,73.33
2018-04-06T16:02:33.228Z,73.67
2018-04-06T16:05:00.923Z,74.20
2018-04-06T16:07:28.570Z,73.93
2018-04-06T16:09:56.157Z,74.26
2018-04-06T16:12:23.968Z,74.61
2018-04-06T16:14:51.555Z,74.91
2018-04-06T16:17:19.286Z,75.15
2018-04-06T16:19:46.896Z,75.58
2018-04-06T16:22:14.644Z,75.72
2018-04-06T16:24:42.351Z,75.56
2018-04-06T16:27:09.916Z,75.31
2018-04-06T16:29:37.514Z,75.17
2018-04-06T16:32:05.094Z,75.61
2018-04-06T16:34:32.698Z,75.72
2018-04-06T16:37:00.270Z,76.09
2018-04-06T16:39:27.827Z,76.51
2018-04-06T16:41:55.562Z,76.88
2018-04-06T16:44:23.140Z,76.65
2018-04-06T16:46:50.815Z,76.58
2018-04-06T16:49:18.374Z,77.04
2018-04-06T16:51:45.930Z,77.17
2018-04-06T16:54:13.773Z,77.78
2018-04-06T16:56:41.493Z,77.76
2018-04-06T16:59:09.310Z,78.03
2018-04-06T17:01:36.882Z,78.17
2018-04-06T17:04:04.450Z,78.37
2018-04-06T17:06:32.265Z,78.74
2018-04-06T17:09:00.083Z,78.69
2018-04-06T17:11:27.660Z,78.67
2018-04-06T17:13:55.204Z,79.10
2018-04-06T17:16:22.903Z,78.91
2018-04-06T17:18:50.649Z,79.20
2018-04-06T17:21:18.219Z,79.53
2018-04-06T17:23:46.037Z,79.40
2018-04-06T17:26:13.618Z,79.21
2018-04-06T17:28:41.241Z,79.44
2018-04-06T17:31:08.806Z,79.16
2018-04-06T17:33:36.374Z,79.43
2018-04-06T17:36:03.972Z,79.77
2018-04-06T17:38:31.535Z,79.82
2018-04-06T17:40:59.158Z,80.28
2018-04-06T17:43:26.729Z,80.04
2018-04-06T17:45:54.296Z,80.06
2018-04-06T17:48:21.982Z,80.33
2018-04-06T17:50:49.579Z,80.35
2018-04-06T17:53:17.164Z,80.33
2018-04-06T17:55:44.924Z,80.50
2018-04-06T17:58:12.495Z,80.63
2018-04-06T18:00:40.070Z,80.68
2018-04-06T18:03:07.881Z,80.52
2018-04-06T18:05:35.454Z,80.87
2018-04-06T18:08:03.028Z,80.91
2018-04-06T18:10:30.833Z,81.34
2018-04-06T18:12:58.401Z,81.20
2018-04-06T18:15:25.976Z,81.82
2018-04-06T18:17:53.786Z,81.94
2018-04-06T18:20:21.505Z,82.20
2018-04-06T18:22:49.082Z,81.99
2018-04-06T18:25:16.803Z,82.12
2018-04-06T18:27:44.558Z,82.39
2018-04-06T18:30:12.124Z,82.37
2018-04-06T18:32:39.701Z,82.76
2018-04-06T18:35:07.282Z,83.03
2018-04-06T18:37:34.854Z,83.47
2018-04-06T18:40:02.430Z,83.30
2018-04-06T18:42:29.994Z,83.06
2018-04-06T18:44:57.612Z,83.40
2018-04-06T18:47:25.404Z,83.62
2018-04-06T18:49:53.222Z,83.60
2018-04-06T18:52:21.040Z,83.80
2018-04-06T18:54:48.758Z,83.86
2018-04-06T18:57:16.373Z,84.46
2018-04-06T18:59:43.970Z,84.51
2018-04-06T19:02:11.807Z,84.78
2018-04-06T19:04:39.384Z,84.90
2018-04-06T19:07:06.958Z,85.11
2018-04-06T19:09:34.767Z,85.23
2018-04-06T19:12:02.334Z,85.17
2018-04-06T19:14:30.103Z,85.17
2018-04-06T19:16:57.708Z,85.59
2018-04-06T19:19:25.363Z,85.89
2018-04-06T19:21:53.159Z,85.96
2018-04-06T19:24:20.765Z,86.01
2018-04-06T19:26:48.594Z,85.84
2018-04-06T19:29:16.180Z,86.09
2018-04-06T19:31:43.931Z,86.15
2018-04-06T19:34:11.490Z,86.10
2018-04-06T19:36:39.157Z,86.26
2018-04-06T19:39:06.786Z,86.44
2018-04-06T19:41:34.350Z,86.17
2018-04-06T19:44:01.954Z,86.20
2018-04-06T19:46:29.738Z,86.23
2018-04-06T19:48:57.342Z,86.16
2018-04-06T19:51:24.899Z,85.96
2018-04-06T19:53:52.694Z,86.02
2018-04-06T19:56:20.262Z,85.78
2018-04-06T19:58:48.030Z,85.57
2018-04-06T20:01:15.606Z,85.49
2018-04-06T20:03:43.178Z,85.16
2018-04-06T20:08:44.498Z,85.77
2018-04-06T20:11:12.319Z,85.59
2018-04-06T20:13:40.059Z,85.46
2018-04-06T20:16:07.644Z,85.63
2018-04-06T20:18:35.236Z,85.41
2018-04-06T20:21:02.811Z,85.76
2018-04-06T20:23:30.430Z,85.72
2018-04-06T20:25:57.990Z,85.54
2018-04-06T20:28:25.766Z,85.13
2018-04-06T20:30:53.342Z,85.44
2018-04-06T20:33:21.066Z,85.00
2018-04-06T20:35:48.920Z,84.92
2018-04-06T20:38:16.485Z,85.15
2018-04-06T20:40:44.046Z,85.63
2018-04-06T20:43:11.775Z,85.96
2018-04-06T20:45:40.056Z,85.57
2018-04-06T20:48:07.914Z,85.74
2018-04-06T20:50:35.633Z,85.80
2018-04-06T20:53:03.355Z,85.76
2018-04-06T20:55:31.169Z,85.85
2018-04-06T20:57:58.988Z,85.35
2018-04-06T21:00:26.606Z,84.99
2018-04-06T21:02:54.205Z,84.90
2018-04-06T21:05:21.770Z,84.93
2018-04-06T21:07:49.559Z,85.20
2018-04-06T21:10:17.136Z,85.66
2018-04-06T21:12:44.788Z,85.55
2018-04-06T21:15:12.360Z,85.57
2018-04-06T21:17:39.926Z,85.50
2018-04-06T21:20:07.674Z,85.21
2018-04-06T21:22:35.468Z,84.88
2018-04-06T21:25:03.094Z,84.89
2018-04-06T21:27:30.656Z,84.96
2018-04-06T21:29:58.242Z,84.92
2018-04-06T21:32:25.847Z,84.69
2018-04-06T21:34:53.657Z,84.48
2018-04-06T21:37:21.288Z,84.24
2018-04-06T21:39:49.009Z,84.47
2018-04-06T21:42:16.571Z,84.42
2018-04-06T21:44:44.182Z,84.31
2018-04-06T21:47:11.774Z,84.34
2018-04-06T21:49:39.404Z,84.47
2018-04-06T21:52:07.183Z,84.20
2018-04-06T21:54:34.742Z,83.76
2018-04-06T21:57:02.419Z,83.52
2018-04-06T21:59:30.018Z,83.44
2018-04-06T22:01:57.856Z,83.53
2018-04-06T22:04:25.409Z,83.52
2018-04-06T22:06:53.169Z,83.19
2018-04-06T22:09:20.826Z,83.06
2018-04-06T22:11:48.630Z,82.78
2018-04-06T22:14:16.205Z,82.72
2018-04-06T22:16:43.766Z,83.03
2018-04-06T22:19:11.482Z,82.93
2018-04-06T22:21:39.301Z,82.89
2018-04-06T22:24:06.869Z,83.35
2018-04-06T22:26:34.446Z,82.50
2018-04-06T22:29:02.257Z,82.90
2018-04-06T22:31:29.864Z,83.04
2018-04-06T22:33:57.594Z,83.02
2018-04-06T22:36:25.200Z,83.24
2018-04-06T22:38:52.773Z,82.74
2018-04-06T22:41:20.330Z,83.17
2018-04-06T22:43:47.898Z,83.06
2018-04-06T22:46:15.466Z,83.63
2018-04-06T22:48:43.030Z,83.93
2018-04-06T22:51:10.601Z,83.68
2018-04-06T22:53:38.162Z,83.53
2018-04-06T22:56:05.725Z,83.41
2018-04-06T22:58:33.294Z,83.16
2018-04-06T23:01:00.853Z,83.25
2018-04-06T23:03:28.410Z,83.34
2018-04-06T23:05:55.978Z,82.99
2018-04-06T23:08:23.539Z,82.65
2018-04-06T23:10:51.120Z,82.78
2018-04-06T23:13:18.876Z,82.65
2018-04-06T23:15:46.694Z,82.46
2018-04-06T23:18:14.513Z,82.93
2018-04-06T23:20:42.237Z,82.87
2018-04-06T23:23:09.841Z,82.29
2018-04-06T23:25:37.426Z,82.38
2018-04-06T23:28:05.185Z,82.48
2018-04-06T23:30:32.763Z,82.09
2018-04-06T23:33:00.330Z,82.01
2018-04-06T23:35:27.906Z,81.92
2018-04-06T23:37:55.632Z,82.45
2018-04-06T23:40:23.195Z,82.76
2018-04-06T23:42:50.766Z,82.54
2018-04-06T23:45:18.511Z,82.36
2018-04-06T23:47:46.074Z,82.73
2018-04-06T23:50:13.848Z,82.73
2018-04-06T23:52:41.390Z,82.96
2018-04-06T23:55:09.078Z,83.01
2018-04-06T23:57:36.638Z,82.90
